CheckWX is a tool to help pilots better visualize weather data.  It is not intended as a substitute for an official pre-flight weather briefing.

02:15:50 UTC

KPVU METAR
Provo Municipal Airport
Provo, Utah, USA
Current

20 mins ago

KPVU 190156Z 00000KT 10SM CLR 19/03 A2984 RMK AO2 SLP075 T01940033
Observed
Sep-19 @ 01:56 UTC
Visibility
10 SM
Flight Rules
VFR
Cloud Levels
  • Clear skies
Temperature
19°C / 66°F
Dewpoint
C / 37°F
Humidity
35%
Altimeter
29.84" Hg
Pressure
1010.52 hPa
Previous

1 hour ago

KPVU 190056Z VRB03KT 10SM CLR 25/03 A2985 RMK AO2 SLP067 T02500033
Observed
Sep-19 @ 00:56 UTC
Wind
  • Variable at 3 KTS
Visibility
10 SM
Flight Rules
VFR
Cloud Levels
  • Clear skies
Temperature
25°C / 77°F
Dewpoint
C / 37°F
Humidity
24%
Altimeter
29.85" Hg
Pressure
1010.82 hPa
Previous

2 hours ago

KPVU 182356Z 11006KT 10SM CLR 27/M02 A2985 RMK AO2 SLP067 T02721022 10283 20206 56025
Observed
Sep-18 @ 23:56 UTC
Wind
  • 110° at 6 KTS
Visibility
10 SM
Flight Rules
VFR
Cloud Levels
  • Clear skies
Temperature
27°C / 81°F
Dewpoint
-2°C / 28°F
Humidity
15%
Altimeter
29.85" Hg
Pressure
1010.82 hPa